This is the latest recevied weather packets stored in our database for station/object W5SDC. If no packets are shown the sender has not sent any weather packets the latest 10 day(s).
| Time | Temp. | Humidity | Pressure | Rain* | Wind** | Luminosity | Snow |
|---|---|---|---|---|---|---|---|
| 1777367118 | 24.44° C | 96% | 1012.4 hPa | 0 mm | - | - | - |
| 1777364128 | 24.44° C | 96% | 1012.1 hPa | 0 mm | - | - | - |
| 1777362918 | 24.44° C | 95% | 1012.2 hPa | 0 mm | - | - | - |
| 1777362039 | 24.44° C | 95% | 1012.4 hPa | 0 mm | - | - | - |
| 1777361432 | 24.44° C | 95% | 1012.6 hPa | 0 mm | - | - | - |
| 1777360847 | 25° C | 94% | 1012.7 hPa | 0 mm | - | - | - |
| 1777359928 | 25° C | 94% | 1012.7 hPa | 0 mm | - | - | - |
| 1777357839 | 25° C | 93% | 1012.9 hPa | 0 mm | - | - | - |
| 1777356920 | 25° C | 92% | 1013.1 hPa | 0 mm | - | - | - |
| 1777356647 | 25° C | 92% | 1013.1 hPa | 0 mm | - | - | - |
| 1777352720 | 25.56° C | 91% | 1012.7 hPa | 0 mm | - | - | - |
| 1777352427 | 25.56° C | 91% | 1012.7 hPa | 0 mm | - | - | - |
| 1777349730 | 25.56° C | 90% | 1012.8 hPa | 0 mm | - | - | - |
| 1777349125 | 26.11° C | 89% | 1012.7 hPa | 0 mm | - | - | - |
| 1777348227 | 26.11° C | 89% | 1012.6 hPa | 0 mm | - | - | - |
| 1777346723 | 26.67° C | 89% | 1012.3 hPa | 0 mm | - | - | - |
| 1777346429 | 26.67° C | 89% | 1012.2 hPa | 0 mm | - | - | - |
| 1777344320 | 27.22° C | 87% | 1011.8 hPa | 0 mm | - | - | - |
| 1777343733 | 27.22° C | 87% | 1011.7 hPa | 0 mm | - | - | - |
| 1777342229 | 27.78° C | 86% | 1011.7 hPa | 0 mm | - | - | - |
| 1777338049 | 28.89° C | 79% | 1010.5 hPa | 0 mm | - | - | - |
| 1777337717 | 28.89° C | 78% | 1010.5 hPa | 0 mm | - | - | - |
| 1777336819 | 28.89° C | 78% | 1010 hPa | 0 mm | - | - | - |
| 1777336525 | 29.44° C | 77% | 1009.8 hPa | 0 mm | - | - | - |
| 1777333244 | 30° C | 74% | 1010 hPa | 0 mm | - | - | - |
* Rain latest hour (hover to see other rain measurements)
** Current wind speed in m/s (hover to see current wind gust speed)